createdAt,value
2023-02-24T00:00:47.392Z,8.33
2023-02-24T00:02:01.760Z,8.24
2023-02-24T00:03:11.664Z,8.28
2023-02-24T00:04:21.165Z,8.28
2023-02-24T00:05:26.117Z,8.23
2023-02-24T00:06:37.286Z,8.25
2023-02-24T00:07:41.846Z,8.25
2023-02-24T00:08:47.851Z,8.25
2023-02-24T00:10:01.371Z,8.29
2023-02-24T00:11:14.992Z,8.29
2023-02-24T00:12:21.296Z,8.29
2023-02-24T00:13:26.381Z,8.30
2023-02-24T00:14:36.575Z,8.30
2023-02-24T00:15:40.841Z,8.29
2023-02-24T00:16:46.915Z,8.30
2023-02-24T00:17:51.420Z,8.30
2023-02-24T00:18:55.747Z,8.30
2023-02-24T00:20:00.053Z,8.30
2023-02-24T00:21:17.211Z,8.26
2023-02-24T00:22:21.824Z,8.23
2023-02-24T00:23:26.195Z,8.24
2023-02-24T00:24:31.519Z,8.22
2023-02-24T00:25:36.336Z,8.22
2023-02-24T00:26:41.752Z,8.19
2023-02-24T00:27:46.139Z,8.20
2023-02-24T00:28:50.388Z,8.21
2023-02-24T00:29:56.117Z,8.20
2023-02-24T00:31:20.678Z,8.23
2023-02-24T00:32:25.444Z,8.23
2023-02-24T00:33:31.231Z,8.24
2023-02-24T00:34:37.814Z,8.22
2023-02-24T00:35:42.244Z,8.23
2023-02-24T00:36:46.134Z,8.23
2023-02-24T00:37:51.655Z,8.24
2023-02-24T00:39:11.281Z,8.23
2023-02-24T00:40:23.769Z,8.23
2023-02-24T00:41:32.926Z,8.24
2023-02-24T00:42:40.353Z,8.22
2023-02-24T00:43:49.989Z,8.18
2023-02-24T00:44:54.702Z,8.18
2023-02-24T00:46:02.862Z,8.19
2023-02-24T00:47:10.785Z,8.19
2023-02-24T00:48:15.932Z,8.20
2023-02-24T00:49:21.423Z,8.19
2023-02-24T00:50:25.671Z,8.18
2023-02-24T00:51:29.505Z,8.17
2023-02-24T00:52:33.570Z,8.17
2023-02-24T00:53:40.480Z,8.16
2023-02-24T00:54:51.613Z,8.18
2023-02-24T00:56:02.566Z,8.18
2023-02-24T00:57:08.503Z,8.18
2023-02-24T00:58:14.052Z,8.16
2023-02-24T00:59:19.044Z,8.17
2023-02-24T01:00:23.836Z,8.18
2023-02-24T01:01:33.174Z,8.18
2023-02-24T01:02:38.638Z,8.18
2023-02-24T01:03:42.973Z,8.19
2023-02-24T01:04:47.321Z,8.18
2023-02-24T01:05:51.682Z,8.20
2023-02-24T01:07:00.565Z,8.19
2023-02-24T01:08:05.303Z,8.22
2023-02-24T01:09:20.375Z,8.23
2023-02-24T01:10:27.188Z,8.24
2023-02-24T01:11:54.696Z,8.25
2023-02-24T01:12:58.848Z,8.25
2023-02-24T01:14:13.906Z,8.27
2023-02-24T01:15:21.389Z,8.27
2023-02-24T01:16:25.888Z,8.26
2023-02-24T01:17:30.128Z,8.25
2023-02-24T01:18:34.729Z,8.26
2023-02-24T01:19:38.829Z,8.27
2023-02-24T01:20:42.931Z,8.26
2023-02-24T01:21:47.652Z,8.26
2023-02-24T01:22:56.925Z,8.26
2023-02-24T01:24:01.235Z,8.26
2023-02-24T01:25:08.168Z,8.26
2023-02-24T01:26:11.888Z,8.27
2023-02-24T01:27:19.603Z,8.22
2023-02-24T01:28:23.668Z,8.25
2023-02-24T01:29:27.680Z,8.25
2023-02-24T01:30:31.541Z,8.24
2023-02-24T01:31:36.532Z,8.25
2023-02-24T01:32:40.994Z,8.24
2023-02-24T01:33:46.243Z,8.26
2023-02-24T01:34:54.022Z,8.25
2023-02-24T01:35:58.560Z,8.27
2023-02-24T01:37:02.704Z,8.28
2023-02-24T01:38:06.607Z,8.28
2023-02-24T01:39:14.553Z,8.29
2023-02-24T01:40:21.727Z,8.26
2023-02-24T01:41:31.344Z,8.28
2023-02-24T01:42:35.813Z,8.26
2023-02-24T01:44:29.740Z,8.23
2023-02-24T01:45:36.944Z,8.21
2023-02-24T01:46:44.555Z,8.21
2023-02-24T01:47:51.678Z,8.22
2023-02-24T01:49:03.482Z,8.21
2023-02-24T01:50:15.242Z,8.22
2023-02-24T01:51:19.902Z,8.24
2023-02-24T01:52:34.859Z,8.23
2023-02-24T01:53:39.472Z,8.23
2023-02-24T01:54:54.850Z,8.22
2023-02-24T01:55:59.567Z,8.23
2023-02-24T01:57:06.065Z,8.21
2023-02-24T01:58:28.820Z,8.25
2023-02-24T01:59:38.135Z,8.23
2023-02-24T02:00:48.462Z,8.23
2023-02-24T02:02:04.464Z,8.23
2023-02-24T02:03:31.508Z,8.21
2023-02-24T02:04:57.470Z,8.21
2023-02-24T02:06:09.220Z,8.17
2023-02-24T02:07:20.064Z,8.18
2023-02-24T02:08:25.213Z,8.20
2023-02-24T02:09:29.891Z,8.19
2023-02-24T02:10:35.100Z,8.18
2023-02-24T02:11:38.990Z,8.22
2023-02-24T02:12:45.185Z,8.23
2023-02-24T02:13:52.884Z,8.24
2023-02-24T02:14:59.864Z,8.25
2023-02-24T02:16:38.550Z,8.26
2023-02-24T02:17:58.014Z,8.27
2023-02-24T02:19:16.673Z,8.29
2023-02-24T02:20:50.162Z,8.29
2023-02-24T02:22:02.931Z,8.32
2023-02-24T02:23:58.171Z,8.32
2023-02-24T02:25:34.235Z,8.33
2023-02-24T02:26:50.458Z,8.34
2023-02-24T02:28:15.719Z,8.36
2023-02-24T02:29:58.472Z,8.37
2023-02-24T02:31:21.217Z,8.38
2023-02-24T02:33:02.302Z,8.40
2023-02-24T02:35:06.956Z,8.41
2023-02-24T02:36:43.855Z,8.43
2023-02-24T02:38:12.229Z,8.45
2023-02-24T02:39:59.346Z,8.48
2023-02-24T02:41:26.555Z,8.49
2023-02-24T02:43:27.637Z,8.51
2023-02-24T02:44:45.350Z,8.50
2023-02-24T02:46:05.212Z,8.53
2023-02-24T02:47:35.323Z,8.52
2023-02-24T02:48:58.291Z,8.50
2023-02-24T02:50:28.002Z,8.51
2023-02-24T02:51:41.722Z,8.51
2023-02-24T02:53:06.301Z,8.51
2023-02-24T02:54:25.157Z,8.51
2023-02-24T02:55:54.073Z,8.52
2023-02-24T02:57:21.042Z,8.51
2023-02-24T02:58:34.299Z,8.48
2023-02-24T02:59:57.327Z,8.51
2023-02-24T03:01:07.604Z,8.51
2023-02-24T03:02:15.639Z,8.52
2023-02-24T03:03:20.057Z,8.53
2023-02-24T03:04:26.867Z,8.56
2023-02-24T03:05:47.552Z,8.56
2023-02-24T03:07:02.145Z,8.55
2023-02-24T03:08:12.247Z,8.57
2023-02-24T03:09:32.660Z,8.57
2023-02-24T03:10:37.558Z,8.56
2023-02-24T03:12:00.002Z,8.61
2023-02-24T03:13:11.214Z,8.60
2023-02-24T03:14:21.895Z,8.60
2023-02-24T03:15:30.488Z,8.59
2023-02-24T03:16:36.018Z,8.61
2023-02-24T03:17:45.809Z,8.62
2023-02-24T03:19:06.390Z,8.63
2023-02-24T03:20:23.172Z,8.63
2023-02-24T03:21:45.849Z,8.62
2023-02-24T03:23:03.734Z,8.62
2023-02-24T03:24:09.681Z,8.63
2023-02-24T03:25:14.432Z,8.63
2023-02-24T03:26:46.751Z,8.63
2023-02-24T03:27:58.373Z,8.60
2023-02-24T03:29:24.420Z,8.60
2023-02-24T03:30:44.908Z,8.56
2023-02-24T03:32:10.682Z,8.55
2023-02-24T03:33:36.682Z,8.55
2023-02-24T03:35:26.721Z,8.57
2023-02-24T03:36:31.446Z,8.54
2023-02-24T03:37:37.264Z,8.56
2023-02-24T03:38:44.131Z,8.57
2023-02-24T03:39:53.554Z,8.59
2023-02-24T03:40:59.335Z,8.60
2023-02-24T03:42:25.445Z,8.61
2023-02-24T03:43:36.942Z,8.63
2023-02-24T03:44:41.939Z,8.63
2023-02-24T03:45:47.318Z,8.64
2023-02-24T03:46:55.444Z,8.63
2023-02-24T03:48:04.039Z,8.65
2023-02-24T03:49:16.599Z,8.65
2023-02-24T03:50:22.462Z,8.65
2023-02-24T03:51:27.952Z,8.62
2023-02-24T03:52:32.778Z,8.63
2023-02-24T03:54:11.401Z,8.61
2023-02-24T03:56:01.776Z,8.62
2023-02-24T03:58:01.386Z,8.59
2023-02-24T03:59:53.223Z,8.54
2023-02-24T04:01:09.943Z,8.54
2023-02-24T04:02:27.015Z,8.59
2023-02-24T04:03:58.308Z,8.62
2023-02-24T04:05:22.839Z,8.62
2023-02-24T04:06:56.098Z,8.70
2023-02-24T04:08:08.197Z,8.68
2023-02-24T04:09:27.646Z,8.70
2023-02-24T04:10:53.088Z,8.72
2023-02-24T04:12:17.681Z,8.80
2023-02-24T04:13:47.475Z,8.85
2023-02-24T04:15:20.023Z,8.89
2023-02-24T04:16:36.662Z,8.90
2023-02-24T04:17:46.793Z,8.91
2023-02-24T04:18:53.305Z,8.98
2023-02-24T04:20:10.609Z,9.01
2023-02-24T04:21:19.618Z,9.05
2023-02-24T04:22:27.441Z,9.02
2023-02-24T04:23:39.605Z,9.03
2023-02-24T04:24:50.678Z,9.03
2023-02-24T04:25:58.316Z,9.09
2023-02-24T04:27:08.302Z,9.13
2023-02-24T04:28:15.363Z,9.16
2023-02-24T04:29:24.885Z,9.19
2023-02-24T04:30:36.129Z,9.18
2023-02-24T04:31:40.844Z,9.22
2023-02-24T04:32:45.183Z,9.26
2023-02-24T04:33:53.518Z,9.28
2023-02-24T04:35:13.155Z,9.31
2023-02-24T04:36:19.122Z,9.33
2023-02-24T04:37:23.335Z,9.35
2023-02-24T04:38:27.726Z,9.34
2023-02-24T04:39:32.601Z,9.35
2023-02-24T04:40:37.014Z,9.35
2023-02-24T04:41:40.928Z,9.37
2023-02-24T04:42:49.254Z,9.40
2023-02-24T04:43:53.315Z,9.42
2023-02-24T04:44:58.805Z,9.42
2023-02-24T04:46:07.992Z,9.40
2023-02-24T04:47:12.942Z,9.43
2023-02-24T04:48:17.051Z,9.43
2023-02-24T04:49:22.437Z,9.44
2023-02-24T04:50:28.741Z,9.44
2023-02-24T04:51:34.132Z,9.45
2023-02-24T04:52:38.987Z,9.46
2023-02-24T04:53:43.243Z,9.45
2023-02-24T04:54:48.425Z,9.47
2023-02-24T04:55:53.752Z,9.47
2023-02-24T04:56:59.228Z,9.47
2023-02-24T04:58:04.333Z,9.48
2023-02-24T04:59:10.774Z,9.49
2023-02-24T05:00:22.993Z,9.49
2023-02-24T05:01:27.274Z,9.50
2023-02-24T05:02:31.955Z,9.48
2023-02-24T05:03:36.951Z,9.48
2023-02-24T05:04:42.443Z,9.49
2023-02-24T05:05:57.062Z,9.48
2023-02-24T05:07:01.360Z,9.48
2023-02-24T05:08:11.083Z,9.48
2023-02-24T05:09:18.416Z,9.50
2023-02-24T05:10:28.223Z,9.51
2023-02-24T05:11:35.437Z,9.51
2023-02-24T05:12:40.247Z,9.50
2023-02-24T05:13:47.967Z,9.49
2023-02-24T05:14:55.148Z,9.48
2023-02-24T05:16:08.366Z,9.49
2023-02-24T05:17:14.489Z,9.48
2023-02-24T05:18:18.767Z,9.48
2023-02-24T05:19:41.343Z,9.48
2023-02-24T05:21:07.997Z,9.48
2023-02-24T05:22:14.666Z,9.48
2023-02-24T05:23:18.832Z,9.48
2023-02-24T05:24:23.064Z,9.48
2023-02-24T05:25:27.398Z,9.49
2023-02-24T05:26:32.300Z,9.49
2023-02-24T05:27:39.339Z,9.48
2023-02-24T05:28:52.713Z,9.47
2023-02-24T05:29:57.612Z,9.44
2023-02-24T05:31:34.771Z,9.43
2023-02-24T05:32:39.473Z,9.44
2023-02-24T05:33:46.630Z,9.44
2023-02-24T05:34:50.606Z,9.43
2023-02-24T05:35:56.760Z,9.43
2023-02-24T05:37:10.989Z,9.38
2023-02-24T05:38:19.908Z,9.36
2023-02-24T05:39:26.849Z,9.38
2023-02-24T05:40:31.336Z,9.37
2023-02-24T05:41:42.026Z,9.35
2023-02-24T05:42:47.382Z,9.32
2023-02-24T05:43:56.649Z,9.32
2023-02-24T05:45:02.394Z,9.30
2023-02-24T05:46:07.374Z,9.32
2023-02-24T05:47:11.953Z,9.33
2023-02-24T05:48:16.881Z,9.32
2023-02-24T05:49:27.302Z,9.30
2023-02-24T05:50:32.466Z,9.25
2023-02-24T05:51:39.613Z,9.22
2023-02-24T05:52:46.149Z,9.23
2023-02-24T05:53:55.758Z,9.23
2023-02-24T05:55:03.028Z,9.24
2023-02-24T05:56:09.469Z,9.25
2023-02-24T05:57:21.196Z,9.24
2023-02-24T05:58:29.312Z,9.23
2023-02-24T05:59:35.201Z,9.23
2023-02-24T06:00:40.625Z,9.24
2023-02-24T06:01:48.860Z,9.22
2023-02-24T06:02:53.255Z,9.14
2023-02-24T06:04:07.551Z,9.17
2023-02-24T06:05:25.605Z,9.20
2023-02-24T06:06:31.467Z,9.21
2023-02-24T06:07:36.254Z,9.22
2023-02-24T06:08:50.100Z,9.23
2023-02-24T06:10:00.373Z,9.23
2023-02-24T06:11:04.915Z,9.25
2023-02-24T06:12:16.806Z,9.27
2023-02-24T06:13:23.211Z,9.27
2023-02-24T06:14:29.044Z,9.26
2023-02-24T06:15:37.768Z,9.27
2023-02-24T06:16:51.728Z,9.25
2023-02-24T06:18:20.326Z,9.29
2023-02-24T06:19:27.505Z,9.27
2023-02-24T06:20:37.815Z,9.28
2023-02-24T06:21:46.983Z,9.30
2023-02-24T06:22:57.780Z,9.29
2023-02-24T06:24:02.764Z,9.33
2023-02-24T06:25:11.807Z,9.33
2023-02-24T06:26:19.728Z,9.31
2023-02-24T06:27:25.583Z,9.35
2023-02-24T06:28:34.109Z,9.35
2023-02-24T06:29:39.280Z,9.35
2023-02-24T06:30:43.889Z,9.35
2023-02-24T06:31:50.135Z,9.36
2023-02-24T06:32:57.654Z,9.35
2023-02-24T06:34:03.914Z,9.35
2023-02-24T06:35:09.761Z,9.35
2023-02-24T06:36:15.542Z,9.37
2023-02-24T06:37:21.196Z,9.38
2023-02-24T06:38:26.327Z,9.38
2023-02-24T06:39:36.186Z,9.41
2023-02-24T06:40:42.898Z,9.40
2023-02-24T06:41:53.077Z,9.44
2023-02-24T06:42:57.285Z,9.42
2023-02-24T06:44:01.875Z,9.43
2023-02-24T06:45:08.756Z,9.40
2023-02-24T06:46:16.520Z,9.43
2023-02-24T06:47:23.092Z,9.42
2023-02-24T06:48:29.241Z,9.41
2023-02-24T06:49:37.984Z,9.45
2023-02-24T06:50:46.772Z,9.48
2023-02-24T06:52:03.695Z,9.47
2023-02-24T06:53:17.117Z,9.46
2023-02-24T06:54:30.994Z,9.47
2023-02-24T06:55:37.022Z,9.43
2023-02-24T06:56:44.426Z,9.40
2023-02-24T06:58:04.507Z,9.38
2023-02-24T06:59:16.341Z,9.37
2023-02-24T07:00:36.880Z,9.40
2023-02-24T07:01:47.196Z,9.37
2023-02-24T07:02:54.604Z,9.38
2023-02-24T07:04:08.262Z,9.34
2023-02-24T07:05:15.301Z,9.36
2023-02-24T07:06:26.829Z,9.39
2023-02-24T07:07:32.206Z,9.43
2023-02-24T07:08:41.413Z,9.45
2023-02-24T07:09:46.154Z,9.45
2023-02-24T07:11:01.515Z,9.42
2023-02-24T07:12:11.784Z,9.44
2023-02-24T07:13:17.212Z,9.45
2023-02-24T07:14:27.150Z,9.48
2023-02-24T07:15:32.370Z,9.49
2023-02-24T07:16:39.627Z,9.51
2023-02-24T07:17:48.280Z,9.56
2023-02-24T07:19:00.153Z,9.56
2023-02-24T07:20:12.473Z,9.60
2023-02-24T07:21:18.432Z,9.61
2023-02-24T07:22:26.092Z,9.61
2023-02-24T07:23:30.664Z,9.61
2023-02-24T07:24:40.961Z,9.63
2023-02-24T07:25:46.850Z,9.60
2023-02-24T07:27:01.383Z,9.64
2023-02-24T07:28:07.607Z,9.64
2023-02-24T07:29:13.575Z,9.68
2023-02-24T07:30:18.825Z,9.68
2023-02-24T07:31:26.099Z,9.68
2023-02-24T07:32:33.682Z,9.71
2023-02-24T07:33:46.796Z,9.71
2023-02-24T07:34:52.139Z,9.73
2023-02-24T07:35:58.147Z,9.76
2023-02-24T07:37:08.510Z,9.76
2023-02-24T07:38:17.855Z,9.78
2023-02-24T07:39:24.355Z,9.79
2023-02-24T07:40:30.109Z,9.80
2023-02-24T07:41:38.023Z,9.84
2023-02-24T07:42:42.579Z,9.82
2023-02-24T07:43:46.770Z,9.86
2023-02-24T07:44:52.533Z,9.83
2023-02-24T07:45:58.285Z,9.87
2023-02-24T07:47:08.076Z,9.88
2023-02-24T07:48:15.986Z,9.88
2023-02-24T07:49:26.407Z,9.91
2023-02-24T07:50:33.060Z,9.93
2023-02-24T07:51:37.532Z,9.94
2023-02-24T07:52:51.294Z,9.94
2023-02-24T07:54:01.780Z,9.97
2023-02-24T07:55:11.563Z,10.00
2023-02-24T07:56:20.885Z,10.01
2023-02-24T07:57:26.182Z,10.02
2023-02-24T07:58:34.636Z,10.03
2023-02-24T07:59:40.408Z,10.04
2023-02-24T08:01:00.014Z,10.06
2023-02-24T08:02:07.940Z,10.09
2023-02-24T08:03:13.806Z,10.08
2023-02-24T08:04:30.869Z,10.09
2023-02-24T08:05:36.698Z,10.09
2023-02-24T08:06:48.085Z,10.11
2023-02-24T08:07:53.155Z,10.12
2023-02-24T08:09:01.330Z,10.14
2023-02-24T08:10:12.371Z,10.15
2023-02-24T08:11:16.425Z,10.09
2023-02-24T08:12:23.403Z,10.13
2023-02-24T08:13:37.777Z,10.08
2023-02-24T08:14:45.009Z,10.11
2023-02-24T08:15:56.848Z,10.09
2023-02-24T08:17:05.642Z,10.11
2023-02-24T08:18:10.231Z,10.11
2023-02-24T08:19:21.259Z,10.16
2023-02-24T08:20:30.377Z,10.20
2023-02-24T08:21:41.612Z,10.24
2023-02-24T08:22:47.644Z,10.28
2023-02-24T08:23:53.308Z,10.38
2023-02-24T08:25:06.582Z,10.44
2023-02-24T08:26:13.181Z,10.54
2023-02-24T08:27:31.079Z,10.61
2023-02-24T08:28:36.543Z,10.64
2023-02-24T08:29:58.239Z,10.71
2023-02-24T08:31:05.203Z,10.74
2023-02-24T08:32:11.066Z,10.77
2023-02-24T08:33:23.386Z,10.80
2023-02-24T08:34:32.143Z,10.76
2023-02-24T08:35:45.322Z,10.81
2023-02-24T08:36:56.138Z,10.78
2023-02-24T08:38:14.905Z,10.75
2023-02-24T08:39:19.650Z,10.80
2023-02-24T08:40:33.156Z,10.81
2023-02-24T08:41:55.168Z,10.78
2023-02-24T08:43:18.230Z,10.78
2023-02-24T08:44:23.484Z,10.78
2023-02-24T08:45:38.963Z,10.83
2023-02-24T08:46:49.631Z,10.85
2023-02-24T08:48:00.950Z,10.83
2023-02-24T08:49:11.364Z,10.83
2023-02-24T08:50:16.563Z,10.82
2023-02-24T08:51:44.146Z,10.85
2023-02-24T08:52:49.412Z,10.90
2023-02-24T08:54:00.194Z,10.92
2023-02-24T08:55:10.844Z,10.93
2023-02-24T08:56:24.611Z,10.94
2023-02-24T08:57:29.257Z,10.93
2023-02-24T08:58:33.654Z,10.91
2023-02-24T08:59:38.957Z,10.92
2023-02-24T09:01:00.254Z,10.98
2023-02-24T09:02:23.749Z,10.95
2023-02-24T09:03:30.250Z,10.99
2023-02-24T09:04:35.396Z,11.00
2023-02-24T09:05:40.465Z,11.02
2023-02-24T09:07:10.675Z,11.07
2023-02-24T09:08:16.048Z,11.11
2023-02-24T09:09:22.770Z,11.10
2023-02-24T09:10:28.879Z,11.11
2023-02-24T09:11:32.903Z,11.04
2023-02-24T09:12:41.692Z,11.06
2023-02-24T09:13:53.700Z,11.12
2023-02-24T09:15:05.068Z,11.16
2023-02-24T09:16:17.053Z,11.29
2023-02-24T09:17:54.135Z,11.41
2023-02-24T09:19:37.409Z,11.44
2023-02-24T09:21:16.677Z,11.46
2023-02-24T09:22:32.139Z,11.37
2023-02-24T09:23:46.742Z,11.37
2023-02-24T09:25:18.413Z,11.41
2023-02-24T09:26:24.420Z,11.47
2023-02-24T09:27:29.940Z,11.52
2023-02-24T09:28:48.952Z,11.43
2023-02-24T09:30:08.351Z,11.42
2023-02-24T09:31:17.445Z,11.43
2023-02-24T09:32:22.905Z,11.43
2023-02-24T09:33:42.407Z,11.41
2023-02-24T09:34:48.230Z,11.40
2023-02-24T09:36:25.484Z,11.40
2023-02-24T09:37:32.499Z,11.40
2023-02-24T09:38:58.786Z,11.44
2023-02-24T09:40:33.632Z,11.42
2023-02-24T09:41:54.954Z,11.36
2023-02-24T09:42:59.826Z,11.33
2023-02-24T09:44:18.751Z,11.27
2023-02-24T09:45:33.747Z,11.30
2023-02-24T09:46:56.496Z,11.41
2023-02-24T09:48:24.387Z,11.48
2023-02-24T09:50:04.506Z,11.50
2023-02-24T09:51:34.074Z,11.53
2023-02-24T09:53:00.115Z,11.51
2023-02-24T09:54:18.152Z,11.65
2023-02-24T09:56:04.106Z,11.64
2023-02-24T09:57:25.738Z,11.67
2023-02-24T09:59:13.720Z,11.66
2023-02-24T10:00:28.501Z,11.64
2023-02-24T10:02:44.621Z,11.61
2023-02-24T10:04:23.248Z,11.57
2023-02-24T10:05:49.550Z,11.47
2023-02-24T10:07:04.618Z,11.58
2023-02-24T10:08:26.046Z,11.52
2023-02-24T10:10:20.270Z,11.53
2023-02-24T10:11:35.178Z,11.44
2023-02-24T10:13:30.666Z,11.49
2023-02-24T10:15:19.317Z,11.48
2023-02-24T10:16:44.140Z,11.56
2023-02-24T10:18:00.432Z,11.61
2023-02-24T10:19:36.433Z,11.59
2023-02-24T10:20:54.310Z,11.58
2023-02-24T10:22:52.799Z,11.50
2023-02-24T10:24:07.927Z,11.52
2023-02-24T10:25:40.029Z,11.54
2023-02-24T10:27:01.261Z,11.59
2023-02-24T10:28:45.771Z,11.62
2023-02-24T10:30:26.601Z,11.57
2023-02-24T10:31:58.201Z,11.62
2023-02-24T10:33:36.698Z,11.51
2023-02-24T10:34:47.200Z,11.62
2023-02-24T10:36:09.844Z,11.65
2023-02-24T10:37:29.094Z,11.63
2023-02-24T10:38:41.562Z,11.63
2023-02-24T10:39:52.003Z,11.66
2023-02-24T10:41:07.062Z,11.68
2023-02-24T10:42:26.169Z,11.72
2023-02-24T10:43:32.789Z,11.76
2023-02-24T10:44:39.468Z,11.76
2023-02-24T10:45:47.987Z,11.81
2023-02-24T10:47:14.374Z,11.72
2023-02-24T10:48:40.738Z,11.72
2023-02-24T10:49:58.332Z,11.69
2023-02-24T10:51:37.613Z,11.56
2023-02-24T10:53:11.956Z,11.40
2023-02-24T10:54:34.216Z,11.41
2023-02-24T10:55:48.531Z,11.41
2023-02-24T10:57:08.278Z,11.52
2023-02-24T10:58:29.591Z,11.62
2023-02-24T11:00:17.006Z,11.75
2023-02-24T11:01:41.315Z,11.87
2023-02-24T11:03:11.102Z,11.99
2023-02-24T11:04:28.675Z,12.06
2023-02-24T11:05:56.776Z,12.07
2023-02-24T11:07:24.998Z,12.16
2023-02-24T11:09:05.429Z,12.11
2023-02-24T11:10:34.698Z,12.17
2023-02-24T11:12:03.703Z,12.09
2023-02-24T11:15:38.716Z,11.94
2023-02-24T11:17:15.053Z,11.99
2023-02-24T11:18:32.872Z,12.07
2023-02-24T11:20:06.979Z,12.15
2023-02-24T11:21:21.452Z,12.17
2023-02-24T11:22:42.578Z,12.18
2023-02-24T11:23:59.963Z,12.27
2023-02-24T11:25:15.078Z,12.34
2023-02-24T11:26:32.627Z,12.39
2023-02-24T11:27:36.729Z,12.47
2023-02-24T11:28:57.043Z,12.51
2023-02-24T11:30:26.944Z,12.42
2023-02-24T11:31:56.914Z,12.35
2023-02-24T11:33:30.329Z,12.40
2023-02-24T11:35:20.062Z,12.41
2023-02-24T11:36:58.922Z,12.42
2023-02-24T11:38:28.344Z,12.50
2023-02-24T11:39:46.463Z,12.55
2023-02-24T11:41:27.976Z,12.64
2023-02-24T11:42:40.253Z,12.69
2023-02-24T11:44:01.054Z,12.78
2023-02-24T11:45:34.962Z,12.82
2023-02-24T11:46:58.256Z,12.93
2023-02-24T11:48:20.962Z,12.94
2023-02-24T11:49:45.717Z,12.99
2023-02-24T11:51:05.318Z,13.07
2023-02-24T11:52:33.477Z,13.09
2023-02-24T11:54:11.143Z,13.03
2023-02-24T11:55:43.354Z,13.06
2023-02-24T11:57:04.825Z,13.11
2023-02-24T11:58:36.381Z,13.11
2023-02-24T11:59:55.061Z,13.19
2023-02-24T12:01:16.243Z,13.21
2023-02-24T12:02:39.136Z,13.21
2023-02-24T12:04:34.228Z,13.23
2023-02-24T12:05:50.173Z,13.20
2023-02-24T12:07:39.153Z,13.21
2023-02-24T12:08:53.824Z,13.16
2023-02-24T12:10:17.732Z,13.12
2023-02-24T12:11:39.585Z,13.20
2023-02-24T12:13:10.920Z,13.16
2023-02-24T12:14:43.655Z,13.16
2023-02-24T12:15:56.760Z,13.21
2023-02-24T12:17:31.516Z,13.15
2023-02-24T12:19:12.904Z,13.17
2023-02-24T12:20:31.456Z,13.19
2023-02-24T12:21:46.316Z,13.12
2023-02-24T12:23:02.045Z,13.05
2023-02-24T12:24:12.927Z,13.11
2023-02-24T12:25:45.170Z,13.14
2023-02-24T12:27:39.656Z,13.02
2023-02-24T12:29:10.330Z,12.97
2023-02-24T12:30:58.180Z,13.06
2023-02-24T12:32:26.886Z,13.09
2023-02-24T12:34:01.026Z,13.00
2023-02-24T12:35:57.011Z,12.96
2023-02-24T12:37:38.494Z,12.98
2023-02-24T12:39:14.418Z,13.01
2023-02-24T12:40:39.289Z,12.92
2023-02-24T12:42:38.386Z,12.88
2023-02-24T12:44:41.714Z,12.87
2023-02-24T12:46:14.789Z,12.93
2023-02-24T12:47:40.706Z,12.94
2023-02-24T12:49:10.549Z,12.89
2023-02-24T12:50:55.127Z,12.85
2023-02-24T12:54:07.574Z,12.86
2023-02-24T12:56:02.541Z,12.84
2023-02-24T12:57:57.202Z,12.86
2023-02-24T12:59:11.634Z,12.83
2023-02-24T13:00:53.197Z,12.77
2023-02-24T13:02:18.181Z,12.72
2023-02-24T13:03:48.542Z,12.65
2023-02-24T13:05:22.950Z,12.60
2023-02-24T13:06:54.313Z,12.54
2023-02-24T13:08:32.549Z,12.51
2023-02-24T13:10:02.103Z,12.46
2023-02-24T13:11:37.095Z,12.38
2023-02-24T13:13:04.159Z,12.30
2023-02-24T13:14:24.866Z,12.28
2023-02-24T13:15:34.007Z,12.27
2023-02-24T13:16:38.610Z,12.18
2023-02-24T13:17:58.870Z,12.06
2023-02-24T13:19:39.838Z,11.98
2023-02-24T13:20:45.505Z,11.91
2023-02-24T13:22:26.542Z,11.90
2023-02-24T13:23:44.170Z,11.92
2023-02-24T13:25:38.679Z,11.94
2023-02-24T13:26:47.573Z,11.85
2023-02-24T13:28:27.719Z,11.84
2023-02-24T13:29:51.687Z,11.84
2023-02-24T13:31:10.993Z,11.86
2023-02-24T13:32:39.658Z,11.89
2023-02-24T13:34:00.620Z,11.82
2023-02-24T13:35:31.057Z,11.88
2023-02-24T13:38:42.347Z,11.95
2023-02-24T13:39:49.023Z,12.01
2023-02-24T13:41:08.581Z,12.02
2023-02-24T13:42:29.861Z,12.05
2023-02-24T13:43:34.907Z,12.10
2023-02-24T13:44:53.549Z,12.17
2023-02-24T13:46:19.058Z,12.14
2023-02-24T13:48:15.426Z,12.17
2023-02-24T13:50:15.966Z,12.19
2023-02-24T13:51:59.658Z,12.19
2023-02-24T13:53:32.171Z,12.28
2023-02-24T13:55:15.230Z,12.31
2023-02-24T13:56:57.472Z,12.31
2023-02-24T13:58:27.024Z,12.29
2023-02-24T14:00:13.847Z,12.36
2023-02-24T14:01:21.379Z,12.48
2023-02-24T14:02:31.373Z,12.46
2023-02-24T14:03:40.539Z,12.51
2023-02-24T14:04:55.917Z,12.56
2023-02-24T14:06:02.306Z,12.60
2023-02-24T14:07:21.592Z,12.64
2023-02-24T14:09:10.747Z,12.65
2023-02-24T14:10:28.910Z,12.66
2023-02-24T14:11:39.018Z,12.67
2023-02-24T14:12:52.954Z,12.66
2023-02-24T14:14:09.809Z,12.72
2023-02-24T14:15:22.655Z,12.70
2023-02-24T14:16:43.947Z,12.85
2023-02-24T14:18:04.009Z,12.81
2023-02-24T14:19:30.252Z,12.83
2023-02-24T14:20:44.386Z,12.82
2023-02-24T14:22:00.080Z,12.81
2023-02-24T14:23:35.864Z,12.78
2023-02-24T14:24:43.845Z,12.86
2023-02-24T14:27:00.637Z,12.88
2023-02-24T14:28:03.508Z,12.84
2023-02-24T14:31:42.951Z,12.90
2023-02-24T14:33:05.891Z,12.90
2023-02-24T14:34:23.114Z,12.90
2023-02-24T14:36:15.062Z,12.84
2023-02-24T14:37:46.352Z,12.83
2023-02-24T14:39:31.419Z,12.75
2023-02-24T14:41:32.790Z,12.66
2023-02-24T14:45:28.736Z,12.59
2023-02-24T14:46:52.381Z,12.62
2023-02-24T14:48:04.110Z,12.60
2023-02-24T14:50:33.147Z,12.55
2023-02-24T14:54:58.525Z,12.56
2023-02-24T14:56:34.365Z,12.58
2023-02-24T14:58:39.796Z,12.58
2023-02-24T15:00:01.483Z,12.54
2023-02-24T15:02:05.517Z,12.57
2023-02-24T15:03:54.831Z,12.55
2023-02-24T15:05:18.007Z,12.54
2023-02-24T15:06:50.742Z,12.43
2023-02-24T15:08:05.841Z,12.39
2023-02-24T15:09:26.615Z,12.35
2023-02-24T15:10:35.650Z,12.33
2023-02-24T15:11:51.125Z,12.29
2023-02-24T15:13:12.870Z,12.24
2023-02-24T15:14:27.787Z,12.20
2023-02-24T15:15:46.640Z,12.23
2023-02-24T15:17:03.427Z,12.21
2023-02-24T15:18:26.825Z,12.14
2023-02-24T15:19:49.586Z,12.11
2023-02-24T15:21:31.745Z,12.11
2023-02-24T15:22:41.825Z,12.08
2023-02-24T15:23:48.830Z,12.01
2023-02-24T15:25:24.051Z,11.91
2023-02-24T15:26:43.629Z,11.90
2023-02-24T15:28:18.936Z,11.93
2023-02-24T15:29:35.493Z,11.84
2023-02-24T15:31:10.935Z,11.83
2023-02-24T15:32:56.792Z,11.85
2023-02-24T15:34:44.191Z,11.92
2023-02-24T15:36:09.528Z,11.92
2023-02-24T15:37:49.575Z,11.83
2023-02-24T15:39:04.378Z,11.71
2023-02-24T15:42:24.555Z,11.68
2023-02-24T15:43:51.358Z,11.68
2023-02-24T15:47:03.888Z,11.55
2023-02-24T15:48:49.346Z,11.46
2023-02-24T15:50:17.175Z,11.27
2023-02-24T15:51:58.274Z,11.21
2023-02-24T15:53:27.274Z,11.10
2023-02-24T15:54:46.808Z,11.07
2023-02-24T15:56:25.791Z,10.96
2023-02-24T15:57:45.443Z,10.85
2023-02-24T15:59:02.747Z,10.77
2023-02-24T16:00:44.590Z,10.69
2023-02-24T16:01:52.393Z,10.68
2023-02-24T16:03:23.879Z,10.67
2023-02-24T16:05:01.766Z,10.70
2023-02-24T16:06:26.510Z,10.62
2023-02-24T16:07:39.417Z,10.61
2023-02-24T16:09:13.378Z,10.57
2023-02-24T16:10:34.205Z,10.57
2023-02-24T16:11:57.924Z,10.54
2023-02-24T16:13:17.608Z,10.52
2023-02-24T16:14:22.528Z,10.44
2023-02-24T16:15:56.100Z,10.33
2023-02-24T16:17:34.476Z,10.27
2023-02-24T16:18:59.974Z,10.23
2023-02-24T16:20:41.010Z,10.26
2023-02-24T16:21:53.644Z,10.16
2023-02-24T16:23:16.795Z,10.16
2023-02-24T16:24:29.411Z,10.17
2023-02-24T16:26:32.282Z,10.13
2023-02-24T16:28:04.861Z,10.13
2023-02-24T16:29:29.952Z,10.17
2023-02-24T16:30:58.612Z,10.17
2023-02-24T16:34:31.642Z,10.16
2023-02-24T16:36:10.324Z,10.14
2023-02-24T16:37:52.172Z,10.19
2023-02-24T16:39:05.714Z,10.19
2023-02-24T16:40:38.229Z,10.20
2023-02-24T16:41:58.387Z,10.19
2023-02-24T16:44:44.875Z,10.23
2023-02-24T16:47:33.537Z,10.27
2023-02-24T16:49:14.344Z,10.25
2023-02-24T16:50:50.156Z,10.27
2023-02-24T16:53:50.483Z,10.29
2023-02-24T16:55:13.858Z,10.28
2023-02-24T16:59:34.725Z,10.27
2023-02-24T17:04:31.262Z,10.33
2023-02-24T17:10:51.910Z,10.31
2023-02-24T17:12:01.472Z,10.34
2023-02-24T17:15:28.806Z,10.33
2023-02-24T17:18:21.560Z,10.33
2023-02-24T17:19:41.624Z,10.34
2023-02-24T17:21:39.444Z,10.38
2023-02-24T17:22:57.857Z,10.40
2023-02-24T17:24:42.918Z,10.41
2023-02-24T17:29:00.548Z,10.39
2023-02-24T17:32:35.077Z,10.30
2023-02-24T17:33:48.137Z,10.29
2023-02-24T20:19:19.768Z,9.81
2023-02-24T20:20:25.793Z,9.85
2023-02-24T20:21:33.204Z,9.86
2023-02-24T20:22:39.234Z,9.83
2023-02-24T20:23:48.340Z,9.88
2023-02-24T20:24:55.131Z,9.85